createdAt,value
2023-05-07T00:00:45.471Z,27.00
2023-05-07T00:03:14.324Z,30.95
2023-05-07T00:05:42.530Z,29.77
2023-05-07T00:08:10.011Z,27.73
2023-05-07T00:10:37.272Z,29.40
2023-05-07T00:13:04.532Z,32.50
2023-05-07T00:15:31.812Z,34.05
2023-05-07T00:18:00.504Z,31.05
2023-05-07T00:20:27.882Z,34.22
2023-05-07T00:22:55.522Z,31.42
2023-05-07T00:25:22.758Z,33.65
2023-05-07T00:27:49.944Z,32.67
2023-05-07T00:30:17.292Z,35.38
2023-05-07T00:32:46.633Z,27.23
2023-05-07T00:35:14.017Z,30.02
2023-05-07T00:37:41.544Z,30.92
2023-05-07T00:40:09.780Z,30.05
2023-05-07T00:42:37.815Z,32.47
2023-05-07T00:45:05.184Z,29.25
2023-05-07T00:47:32.827Z,31.95
2023-05-07T00:50:00.113Z,33.17
2023-05-07T00:52:27.892Z,34.03
2023-05-07T00:54:56.100Z,33.08
2023-05-07T00:57:23.667Z,29.73
2023-05-07T00:59:50.876Z,29.35
2023-05-07T01:02:18.524Z,30.10
2023-05-07T01:04:45.749Z,27.88
2023-05-07T01:07:13.287Z,32.03
2023-05-07T01:09:40.676Z,29.17
2023-05-07T01:12:08.713Z,31.55
2023-05-07T01:14:36.463Z,28.00
2023-05-07T01:17:03.706Z,30.02
2023-05-07T01:19:31.336Z,30.33
2023-05-07T01:22:03.523Z,32.58
2023-05-07T01:24:31.097Z,30.77
2023-05-07T01:26:58.312Z,33.30
2023-05-07T01:29:25.504Z,29.05
2023-05-07T01:31:53.988Z,29.70
2023-05-07T01:34:23.037Z,29.92
2023-05-07T01:36:50.603Z,27.75
2023-05-07T01:39:18.132Z,31.73
2023-05-07T01:41:45.454Z,31.67
2023-05-07T01:44:14.233Z,32.58
2023-05-07T01:46:41.484Z,31.45
2023-05-07T01:49:08.850Z,30.40
2023-05-07T01:51:36.367Z,35.70
2023-05-07T01:54:03.554Z,32.30
2023-05-07T01:56:31.425Z,33.47
2023-05-07T01:58:58.582Z,31.02
2023-05-07T02:01:26.059Z,34.00
2023-05-07T02:03:54.792Z,30.15
2023-05-07T02:06:22.171Z,30.10
2023-05-07T02:08:49.368Z,33.72
2023-05-07T02:11:16.493Z,35.40
2023-05-07T02:13:43.733Z,34.67
2023-05-07T02:16:11.860Z,39.30
2023-05-07T02:18:39.199Z,35.35
2023-05-07T02:21:06.369Z,36.58
2023-05-07T02:23:33.538Z,35.95
2023-05-07T02:26:00.755Z,39.38
2023-05-07T02:28:27.898Z,37.90
2023-05-07T02:30:55.701Z,34.60
2023-05-07T02:33:22.968Z,36.42
2023-05-07T02:35:50.224Z,36.33
2023-05-07T02:38:17.441Z,36.90
2023-05-07T02:40:44.708Z,39.85
2023-05-07T02:43:11.893Z,36.80
2023-05-07T02:45:39.304Z,33.25
2023-05-07T02:48:09.457Z,38.08
2023-05-07T02:50:36.765Z,37.22
2023-05-07T02:53:04.597Z,41.85
2023-05-07T02:55:32.360Z,40.25
2023-05-07T02:57:59.554Z,40.67
2023-05-07T03:00:26.824Z,42.03
2023-05-07T03:02:54.031Z,42.15
2023-05-07T03:05:21.289Z,36.72
2023-05-07T03:07:48.634Z,39.88
2023-05-07T03:10:16.151Z,38.67
2023-05-07T03:12:43.356Z,38.83
2023-05-07T03:15:11.609Z,35.25
2023-05-07T03:17:38.849Z,38.20
2023-05-07T03:20:06.464Z,34.95
2023-05-07T03:22:33.716Z,34.47
2023-05-07T03:25:01.044Z,38.45
2023-05-07T03:27:28.249Z,36.13
2023-05-07T03:29:55.431Z,33.88
2023-05-07T03:32:22.716Z,36.90
2023-05-07T03:34:50.039Z,39.63
2023-05-07T03:37:17.236Z,39.58
2023-05-07T03:39:44.443Z,37.03
2023-05-07T03:42:11.648Z,33.67
2023-05-07T03:44:38.784Z,33.30
2023-05-07T03:47:06.002Z,35.33
2023-05-07T03:49:33.167Z,34.90
2023-05-07T03:52:00.388Z,32.40
2023-05-07T03:54:27.586Z,34.92
2023-05-07T03:56:54.750Z,37.25
2023-05-07T03:59:22.079Z,32.95
2023-05-07T04:01:49.959Z,37.60
2023-05-07T04:04:17.456Z,31.05
2023-05-07T04:06:44.807Z,33.05
2023-05-07T04:09:12.018Z,35.53
2023-05-07T04:11:41.151Z,35.97
2023-05-07T04:14:08.449Z,34.70
2023-05-07T04:16:36.450Z,35.65
2023-05-07T04:19:03.683Z,37.22
2023-05-07T04:21:31.338Z,26.42
2023-05-07T04:23:58.802Z,32.45
2023-05-07T04:26:25.949Z,32.72
2023-05-07T04:28:53.083Z,30.50
2023-05-07T04:31:22.691Z,30.90
2023-05-07T04:33:50.048Z,31.15
2023-05-07T04:36:17.316Z,30.52
2023-05-07T04:38:44.448Z,31.45
2023-05-07T04:41:12.198Z,27.27
2023-05-07T04:43:39.567Z,34.55
2023-05-07T04:46:06.775Z,32.53
2023-05-07T04:48:34.046Z,32.78
2023-05-07T04:53:44.413Z,35.15
2023-05-07T04:56:12.000Z,29.42
2023-05-07T04:58:39.170Z,30.80
2023-05-07T05:01:06.345Z,31.42
2023-05-07T05:03:33.712Z,29.08
2023-05-07T05:06:01.539Z,30.50
2023-05-07T05:08:28.715Z,29.42
2023-05-07T05:10:55.856Z,27.20
2023-05-07T05:13:23.149Z,30.67
2023-05-07T05:15:50.494Z,28.83
2023-05-07T05:18:17.749Z,28.67
2023-05-07T05:20:45.183Z,27.45
2023-05-07T05:23:12.585Z,32.42
2023-05-07T05:25:41.252Z,27.05
2023-05-07T05:28:08.437Z,27.77
2023-05-07T05:30:35.648Z,26.33
2023-05-07T05:33:02.904Z,24.23
2023-05-07T05:35:31.835Z,26.70
2023-05-07T05:37:59.087Z,27.17
2023-05-07T05:40:26.327Z,23.63
2023-05-07T05:42:53.482Z,25.80
2023-05-07T05:45:20.940Z,25.23
2023-05-07T05:47:48.093Z,24.10
2023-05-07T05:50:15.280Z,24.30
2023-05-07T05:52:43.069Z,24.88
2023-05-07T05:55:10.498Z,25.33
2023-05-07T05:57:37.714Z,23.88
2023-05-07T06:00:06.240Z,24.58
2023-05-07T06:02:33.484Z,24.70
2023-05-07T06:05:00.835Z,22.45
2023-05-07T06:07:28.109Z,23.77
2023-05-07T06:09:56.365Z,21.63
2023-05-07T06:12:23.557Z,25.83
2023-05-07T06:14:50.867Z,23.35
2023-05-07T06:17:20.140Z,22.75
2023-05-07T06:19:48.686Z,21.85
2023-05-07T06:22:16.034Z,23.70
2023-05-07T06:24:43.306Z,24.17
2023-05-07T06:27:10.816Z,23.40
2023-05-07T06:29:38.051Z,22.42
2023-05-07T06:32:15.436Z,22.27
2023-05-07T06:34:42.643Z,22.08
2023-05-07T06:37:10.123Z,23.48
2023-05-07T06:39:37.353Z,20.48
2023-05-07T06:42:05.610Z,19.05
2023-05-07T06:44:32.969Z,18.30
2023-05-07T06:47:00.270Z,17.83
2023-05-07T06:49:27.447Z,18.63
2023-05-07T06:51:54.924Z,19.52
2023-05-07T06:54:24.451Z,19.75
2023-05-07T06:56:51.757Z,19.20
2023-05-07T06:59:23.189Z,17.40
2023-05-07T07:01:50.822Z,16.10
2023-05-07T07:04:18.086Z,17.52
2023-05-07T07:06:45.704Z,17.77
2023-05-07T07:09:13.094Z,14.25
2023-05-07T07:11:40.214Z,15.60
2023-05-07T07:14:07.463Z,17.55
2023-05-07T07:16:34.732Z,15.75
2023-05-07T07:19:01.989Z,15.02
2023-05-07T07:21:29.179Z,16.27
2023-05-07T07:23:56.421Z,14.35
2023-05-07T07:26:24.638Z,16.48
2023-05-07T07:28:51.812Z,19.40
2023-05-07T07:31:19.029Z,19.08
2023-05-07T07:33:46.490Z,24.40
2023-05-07T07:36:13.629Z,16.38
2023-05-07T07:38:40.913Z,15.88
2023-05-07T07:41:09.674Z,16.80
2023-05-07T07:43:36.933Z,35.83
2023-05-07T07:46:04.224Z,26.23
2023-05-07T07:48:31.430Z,17.33
2023-05-07T07:50:58.716Z,20.98
2023-05-07T07:53:26.323Z,18.27
2023-05-07T07:55:58.072Z,21.70
2023-05-07T07:58:26.679Z,18.63
2023-05-07T08:00:55.642Z,20.70
2023-05-07T08:03:23.212Z,20.27
2023-05-07T08:05:52.152Z,24.30
2023-05-07T08:08:19.327Z,21.50
2023-05-07T08:10:46.635Z,26.25
2023-05-07T08:13:13.888Z,24.00
2023-05-07T08:15:41.226Z,63.30
2023-05-07T08:18:08.640Z,28.50
2023-05-07T08:20:40.318Z,21.77
2023-05-07T08:23:08.286Z,24.52
2023-05-07T08:25:36.022Z,23.85
2023-05-07T08:28:04.525Z,24.25
2023-05-07T08:30:31.659Z,20.52
2023-05-07T08:32:58.891Z,25.10
2023-05-07T08:35:26.953Z,53.42
2023-05-07T08:37:54.380Z,20.17
2023-05-07T08:40:22.656Z,27.65
2023-05-07T08:42:51.939Z,19.67
2023-05-07T08:45:20.325Z,18.70
2023-05-07T08:47:54.118Z,18.15
2023-05-07T08:50:24.335Z,18.23
2023-05-07T08:52:51.722Z,20.13
2023-05-07T08:55:19.063Z,26.92
2023-05-07T08:57:46.474Z,39.90
2023-05-07T09:00:14.736Z,18.85
2023-05-07T09:02:42.796Z,21.75
2023-05-07T09:05:10.322Z,20.50
2023-05-07T09:07:45.440Z,18.55
2023-05-07T09:10:13.769Z,19.98
2023-05-07T09:12:42.122Z,18.25
2023-05-07T09:15:09.750Z,17.00
2023-05-07T09:17:37.699Z,17.45
2023-05-07T09:20:06.993Z,15.10
2023-05-07T09:22:35.517Z,15.10
2023-05-07T09:25:03.223Z,15.68
2023-05-07T09:27:30.558Z,16.35
2023-05-07T09:29:57.780Z,18.02
2023-05-07T09:32:26.892Z,15.73
2023-05-07T09:34:54.042Z,17.48
2023-05-07T09:37:21.546Z,16.25
2023-05-07T09:39:51.307Z,16.73
2023-05-07T09:42:25.039Z,15.68
2023-05-07T09:44:52.286Z,14.05
2023-05-07T09:47:21.053Z,13.45
2023-05-07T09:49:49.188Z,14.82
2023-05-07T09:52:16.808Z,15.45
2023-05-07T09:54:45.162Z,13.77
2023-05-07T09:57:14.177Z,12.50
2023-05-07T09:59:44.013Z,13.63
2023-05-07T10:02:11.676Z,11.23
2023-05-07T10:04:38.916Z,11.57
2023-05-07T10:07:10.659Z,12.40
2023-05-07T10:09:39.658Z,15.10
2023-05-07T10:12:08.061Z,18.33
2023-05-07T10:14:36.591Z,9.80
2023-05-07T10:17:04.020Z,9.50
2023-05-07T10:19:31.651Z,11.90
2023-05-07T10:22:03.801Z,10.77
2023-05-07T10:24:34.905Z,9.93
2023-05-07T10:27:05.218Z,10.88
2023-05-07T10:29:41.176Z,9.60
2023-05-07T10:32:16.137Z,10.15
2023-05-07T10:34:45.592Z,10.18
2023-05-07T10:37:15.186Z,20.35
2023-05-07T10:39:42.499Z,10.43
2023-05-07T10:42:10.521Z,10.50
2023-05-07T10:44:38.443Z,11.60
2023-05-07T10:47:07.042Z,12.30
2023-05-07T10:49:34.336Z,11.65
2023-05-07T10:52:27.812Z,134.93
2023-05-07T10:55:13.877Z,15.63
2023-05-07T10:57:41.113Z,19.35
2023-05-07T11:00:16.852Z,53.10
2023-05-07T11:03:03.931Z,60.60
2023-05-07T11:05:32.726Z,26.05
2023-05-07T11:08:05.343Z,13.50
2023-05-07T11:10:52.819Z,12.90
2023-05-07T11:13:20.716Z,11.93
2023-05-07T11:15:49.279Z,8.32
2023-05-07T11:18:21.537Z,9.95
2023-05-07T11:20:51.663Z,9.60
2023-05-07T11:23:34.334Z,9.75
2023-05-07T11:26:06.018Z,8.65
2023-05-07T11:28:33.593Z,8.77
2023-05-07T11:31:01.108Z,8.82
2023-05-07T11:33:28.856Z,9.85
2023-05-07T11:35:56.923Z,8.10
2023-05-07T11:38:24.135Z,7.95
2023-05-07T11:40:55.153Z,11.05
2023-05-07T11:43:22.791Z,9.32
2023-05-07T11:45:50.585Z,16.45
2023-05-07T11:48:18.326Z,11.23
2023-05-07T11:50:52.775Z,8.57
2023-05-07T11:53:21.011Z,10.25
2023-05-07T11:55:48.369Z,9.55
2023-05-07T11:58:21.855Z,11.23
2023-05-07T12:00:53.057Z,9.20
2023-05-07T12:03:20.696Z,8.98
2023-05-07T12:05:48.494Z,12.18
2023-05-07T12:08:17.075Z,10.35
2023-05-07T12:10:44.902Z,9.45
2023-05-07T12:13:22.636Z,8.63
2023-05-07T12:15:53.505Z,8.07
2023-05-07T12:18:21.697Z,9.82
2023-05-07T12:20:49.373Z,7.70
2023-05-07T12:23:16.809Z,10.20
2023-05-07T12:25:48.007Z,9.10
2023-05-07T12:28:18.810Z,8.27
2023-05-07T12:30:47.255Z,8.65
2023-05-07T12:33:18.300Z,7.65
2023-05-07T12:35:45.877Z,8.35
2023-05-07T12:38:13.883Z,9.25
2023-05-07T12:40:43.296Z,7.80
2023-05-07T12:43:18.269Z,7.68
2023-05-07T12:45:45.880Z,9.63
2023-05-07T12:48:13.302Z,9.38
2023-05-07T12:50:42.554Z,8.55
2023-05-07T12:53:10.357Z,7.82
2023-05-07T12:55:45.024Z,9.75
2023-05-07T12:58:20.627Z,8.20
2023-05-07T13:00:50.829Z,7.60
2023-05-07T13:03:27.890Z,8.18
2023-05-07T13:05:58.609Z,7.78
2023-05-07T13:08:30.793Z,7.35
2023-05-07T13:10:59.385Z,9.32
2023-05-07T13:13:28.367Z,8.40
2023-05-07T13:15:56.856Z,9.00
2023-05-07T13:18:27.150Z,9.88
2023-05-07T13:20:54.984Z,7.47
2023-05-07T13:23:22.494Z,7.95
2023-05-07T13:25:50.882Z,7.55
2023-05-07T13:28:18.186Z,7.03
2023-05-07T13:30:45.504Z,6.88
2023-05-07T13:33:12.939Z,6.80
2023-05-07T13:35:40.391Z,6.50
2023-05-07T13:38:07.653Z,6.00
2023-05-07T13:40:34.824Z,6.38
2023-05-07T13:43:05.165Z,6.80
2023-05-07T13:45:32.383Z,7.78
2023-05-07T13:48:00.070Z,6.70
2023-05-07T13:50:28.239Z,6.18
2023-05-07T13:52:55.684Z,5.97
2023-05-07T13:55:24.482Z,5.93
2023-05-07T13:57:57.297Z,5.40
2023-05-07T14:00:25.141Z,7.80
2023-05-07T14:02:55.061Z,5.53
2023-05-07T14:05:24.204Z,5.90
2023-05-07T14:07:54.514Z,6.57
2023-05-07T14:10:21.861Z,5.75
2023-05-07T14:12:49.130Z,5.65
2023-05-07T14:15:17.145Z,5.20
2023-05-07T14:17:44.811Z,3.97
2023-05-07T14:20:14.832Z,5.00
2023-05-07T14:22:42.348Z,4.45
2023-05-07T14:25:10.995Z,4.60
2023-05-07T14:27:38.348Z,4.47
2023-05-07T14:30:05.855Z,4.88
2023-05-07T14:32:34.055Z,5.20
2023-05-07T14:35:01.276Z,5.43
2023-05-07T14:37:29.182Z,4.07
2023-05-07T14:39:56.362Z,4.05
2023-05-07T14:42:23.520Z,4.35
2023-05-07T14:44:50.761Z,3.78
2023-05-07T14:47:19.924Z,3.75
2023-05-07T14:49:47.339Z,3.53
2023-05-07T14:52:14.561Z,3.50
2023-05-07T14:54:41.827Z,3.75
2023-05-07T14:57:10.998Z,4.50
2023-05-07T14:59:39.699Z,4.00
2023-05-07T15:02:09.258Z,4.57
2023-05-07T15:04:36.702Z,3.95
2023-05-07T15:07:03.877Z,3.92
2023-05-07T15:09:31.701Z,4.47
2023-05-07T15:11:58.899Z,3.53
2023-05-07T15:14:26.343Z,4.13
2023-05-07T15:16:53.597Z,6.50
2023-05-07T15:19:21.148Z,3.70
2023-05-07T15:21:48.304Z,3.50
2023-05-07T15:24:15.491Z,3.97
2023-05-07T15:26:43.273Z,4.20
2023-05-07T15:29:11.337Z,3.40
2023-05-07T15:31:41.777Z,3.63
2023-05-07T15:34:09.064Z,3.97
2023-05-07T15:36:36.278Z,3.28
2023-05-07T15:39:05.247Z,2.70
2023-05-07T15:41:32.389Z,3.25
2023-05-07T15:44:00.066Z,3.63
2023-05-07T15:46:27.763Z,3.30
2023-05-07T15:48:55.403Z,3.63
2023-05-07T15:51:23.431Z,3.70
2023-05-07T15:53:52.160Z,3.60
2023-05-07T15:56:19.367Z,3.60
2023-05-07T15:58:47.847Z,3.35
2023-05-07T16:01:15.214Z,3.80
2023-05-07T16:03:43.055Z,3.03
2023-05-07T16:06:12.613Z,3.35
2023-05-07T16:08:44.154Z,2.80
2023-05-07T16:11:12.297Z,2.80
2023-05-07T16:13:39.520Z,6.57
2023-05-07T16:16:06.859Z,2.78
2023-05-07T16:18:34.081Z,3.25
2023-05-07T16:21:02.833Z,2.80
2023-05-07T16:23:31.960Z,2.72
2023-05-07T16:25:59.547Z,4.45
2023-05-07T16:28:26.773Z,3.20
2023-05-07T16:30:54.024Z,2.78
2023-05-07T16:33:21.306Z,3.28
2023-05-07T16:35:54.887Z,3.17
2023-05-07T16:40:49.204Z,2.63
2023-05-07T16:43:16.370Z,2.90
2023-05-07T16:45:43.508Z,3.75
2023-05-07T16:48:10.899Z,3.40
2023-05-07T16:50:38.435Z,2.97
2023-05-07T16:53:07.244Z,3.38
2023-05-07T16:55:38.756Z,3.88
2023-05-07T16:58:08.198Z,3.20
2023-05-07T17:00:49.068Z,3.63
2023-05-07T17:03:18.129Z,4.00
2023-05-07T17:05:46.098Z,4.00
2023-05-07T17:08:14.171Z,3.97
2023-05-07T17:10:41.961Z,3.80
2023-05-07T17:13:09.168Z,4.72
2023-05-07T17:15:36.704Z,4.60
2023-05-07T17:18:05.125Z,4.22
2023-05-07T17:20:32.377Z,4.55
2023-05-07T17:22:59.544Z,4.43
2023-05-07T17:25:26.797Z,7.38
2023-05-07T17:27:55.967Z,5.00
2023-05-07T17:30:23.131Z,5.20
2023-05-07T17:32:51.018Z,5.13
2023-05-07T17:35:18.429Z,4.93
2023-05-07T17:37:52.599Z,5.45
2023-05-07T17:40:21.113Z,7.22
2023-05-07T17:42:48.789Z,5.18
2023-05-07T17:45:17.473Z,6.50
2023-05-07T17:47:44.697Z,6.43
2023-05-07T17:50:12.215Z,5.03
2023-05-07T17:52:39.951Z,4.72
2023-05-07T17:55:07.548Z,5.60
2023-05-07T17:57:36.961Z,6.13
2023-05-07T18:00:07.760Z,5.55
2023-05-07T18:02:35.355Z,5.78
2023-05-07T18:05:02.592Z,4.80
2023-05-07T18:07:29.827Z,6.03
2023-05-07T18:09:56.948Z,6.60
2023-05-07T18:12:26.208Z,5.75
2023-05-07T18:14:54.995Z,6.18
2023-05-07T18:17:24.323Z,5.97
2023-05-07T18:19:53.994Z,5.90
2023-05-07T18:22:22.219Z,6.00
2023-05-07T18:24:49.491Z,6.20
2023-05-07T18:27:16.860Z,6.45
2023-05-07T18:29:44.036Z,6.68
2023-05-07T18:32:11.901Z,6.45
2023-05-07T18:34:39.203Z,5.97
2023-05-07T18:37:06.536Z,6.28
2023-05-07T18:39:33.766Z,7.13
2023-05-07T18:42:00.991Z,7.00
2023-05-07T18:44:28.468Z,6.20
2023-05-07T18:46:55.766Z,6.20
2023-05-07T18:49:22.995Z,6.72
2023-05-07T18:51:50.387Z,6.57
2023-05-07T18:54:17.548Z,8.25
2023-05-07T18:56:44.682Z,6.45
2023-05-07T18:59:12.148Z,7.93
2023-05-07T19:01:39.420Z,6.68
2023-05-07T19:04:06.690Z,7.00
2023-05-07T19:06:34.180Z,7.03
2023-05-07T19:09:01.684Z,7.53
2023-05-07T19:11:28.862Z,6.90
2023-05-07T19:13:56.015Z,6.90
2023-05-07T19:16:23.275Z,7.07
2023-05-07T19:18:50.651Z,7.20
2023-05-07T19:21:17.968Z,7.10
2023-05-07T19:23:46.187Z,6.75
2023-05-07T19:26:13.492Z,5.72
2023-05-07T19:28:45.450Z,7.15
2023-05-07T19:31:19.622Z,6.22
2023-05-07T19:33:47.090Z,7.38
2023-05-07T19:36:14.619Z,6.85
2023-05-07T19:38:41.882Z,8.43
2023-05-07T19:41:09.928Z,7.20
2023-05-07T19:43:38.591Z,6.85
2023-05-07T19:46:06.713Z,7.28
2023-05-07T19:48:34.124Z,7.38
2023-05-07T19:51:01.525Z,7.10
2023-05-07T19:53:30.447Z,7.70
2023-05-07T19:56:03.214Z,8.15
2023-05-07T19:58:30.622Z,7.67
2023-05-07T20:00:58.085Z,8.05
2023-05-07T20:03:25.791Z,7.90
2023-05-07T20:05:53.163Z,7.45
2023-05-07T20:08:20.560Z,9.43
2023-05-07T20:10:48.731Z,8.48
2023-05-07T20:13:16.468Z,7.72
2023-05-07T20:15:44.046Z,8.40
2023-05-07T20:18:12.003Z,8.55
2023-05-07T20:20:39.152Z,9.10
2023-05-07T20:23:06.635Z,8.13
2023-05-07T20:25:34.099Z,8.98
2023-05-07T20:28:03.885Z,8.02
2023-05-07T20:30:31.503Z,8.63
2023-05-07T20:32:59.268Z,9.30
2023-05-07T20:35:26.577Z,9.48
2023-05-07T20:37:53.856Z,10.15
2023-05-07T20:40:21.189Z,11.77
2023-05-07T20:42:48.642Z,9.23
2023-05-07T20:45:16.287Z,8.88
2023-05-07T20:47:43.884Z,10.70
2023-05-07T20:50:11.753Z,10.07
2023-05-07T20:52:40.056Z,11.90
2023-05-07T20:55:07.555Z,8.82
2023-05-07T20:57:34.966Z,9.73
2023-05-07T21:00:11.932Z,10.13
2023-05-07T21:02:39.384Z,9.60
2023-05-07T21:05:06.760Z,9.75
2023-05-07T21:07:34.226Z,8.70
2023-05-07T21:10:01.385Z,10.05
2023-05-07T21:12:28.868Z,10.07
2023-05-07T21:14:57.916Z,10.35
2023-05-07T21:17:25.440Z,10.30
2023-05-07T21:19:52.640Z,9.32
2023-05-07T21:22:19.796Z,9.15
2023-05-07T21:24:47.005Z,9.70
2023-05-07T21:27:14.247Z,9.07
2023-05-07T21:29:41.673Z,11.70
2023-05-07T21:32:09.078Z,9.07
2023-05-07T21:34:36.223Z,7.85
2023-05-07T21:37:04.037Z,10.88
2023-05-07T21:39:31.482Z,12.45
2023-05-07T21:41:58.653Z,10.05
2023-05-07T21:44:27.099Z,9.38
2023-05-07T21:46:54.331Z,9.27
2023-05-07T21:49:21.624Z,10.48
2023-05-07T21:51:49.052Z,9.93
2023-05-07T21:54:16.262Z,10.68
2023-05-07T21:56:43.729Z,9.32
2023-05-07T21:59:10.950Z,9.57
2023-05-07T22:01:38.161Z,10.45
2023-05-07T22:04:06.085Z,9.73
2023-05-07T22:06:33.622Z,10.40
2023-05-07T22:09:01.001Z,10.23
2023-05-07T22:11:28.177Z,10.75
2023-05-07T22:13:55.523Z,11.65
2023-05-07T22:16:22.721Z,12.13
2023-05-07T22:18:57.559Z,11.38
2023-05-07T22:21:25.135Z,10.18
2023-05-07T22:23:52.326Z,11.05
2023-05-07T22:26:19.652Z,10.50
2023-05-07T22:28:46.874Z,11.70
2023-05-07T22:31:14.094Z,10.65
2023-05-07T22:33:41.856Z,11.55
2023-05-07T22:36:09.174Z,10.90
2023-05-07T22:38:36.321Z,11.25
2023-05-07T22:41:03.653Z,11.07
2023-05-07T22:43:31.078Z,10.32
2023-05-07T22:46:00.198Z,10.98
2023-05-07T22:48:27.717Z,12.55
2023-05-07T22:50:55.102Z,11.13
2023-05-07T22:53:22.284Z,11.18
2023-05-07T22:55:49.464Z,11.57
2023-05-07T22:58:16.731Z,11.45
2023-05-07T23:00:44.030Z,13.27
2023-05-07T23:03:11.975Z,12.25
2023-05-07T23:05:40.006Z,11.70
2023-05-07T23:08:07.173Z,11.52
2023-05-07T23:10:35.323Z,11.23
2023-05-07T23:13:02.873Z,12.13
2023-05-07T23:15:30.211Z,14.63
2023-05-07T23:17:57.518Z,16.63
2023-05-07T23:20:24.711Z,12.25
2023-05-07T23:22:53.294Z,12.57
2023-05-07T23:25:20.597Z,12.68
2023-05-07T23:27:49.855Z,12.40
2023-05-07T23:30:17.194Z,11.60
2023-05-07T23:32:44.448Z,12.40
2023-05-07T23:35:11.619Z,12.20
2023-05-07T23:37:39.225Z,14.63
2023-05-07T23:40:06.842Z,12.85
2023-05-07T23:42:34.050Z,13.02
2023-05-07T23:45:01.182Z,12.85
2023-05-07T23:47:28.470Z,11.88
2023-05-07T23:49:55.688Z,11.65
2023-05-07T23:52:22.951Z,12.73
2023-05-07T23:54:50.136Z,11.00
2023-05-07T23:57:17.354Z,11.68
2023-05-07T23:59:44.581Z,11.43
